createdAt,value
2023-03-26T00:02:07.662Z,99500.66
2023-03-26T00:04:35.796Z,99501.69
2023-03-26T00:07:03.646Z,99504.34
2023-03-26T00:09:33.793Z,99506.88
2023-03-26T00:12:02.158Z,99513.44
2023-03-26T00:14:35.381Z,99509.53
2023-03-26T00:17:04.245Z,99514.97
2023-03-26T00:19:32.273Z,99514.31
2023-03-26T00:22:00.572Z,99519.13
2023-03-26T00:24:29.729Z,99531.78
2023-03-26T00:26:57.576Z,99532.16
2023-03-26T00:29:28.239Z,99536.09
2023-03-26T00:31:58.112Z,99538.91
2023-03-26T00:34:26.920Z,99537.59
2023-03-26T00:36:55.052Z,99545.47
2023-03-26T00:39:24.022Z,99539.53
2023-03-26T00:41:54.658Z,99541.31
2023-03-26T00:44:23.072Z,99546.69
2023-03-26T00:46:51.028Z,99541.41
2023-03-26T00:49:20.237Z,99540.53
2023-03-26T00:51:48.629Z,99541.31
2023-03-26T00:54:16.610Z,99549.84
2023-03-26T00:56:46.861Z,99546.97
2023-03-26T00:59:14.927Z,99542.00
2023-03-26T01:01:44.698Z,99543.13
2023-03-26T01:04:27.489Z,99547.03
2023-03-26T01:06:58.538Z,99537.97
2023-03-26T01:09:33.033Z,99538.25
2023-03-26T01:12:03.193Z,99538.91
2023-03-26T01:14:31.894Z,99540.19
2023-03-26T01:17:01.723Z,99535.38
2023-03-26T01:19:40.831Z,99544.13
2023-03-26T01:22:14.543Z,99545.28
2023-03-26T01:24:46.140Z,99548.13
2023-03-26T01:27:29.066Z,99539.88
2023-03-26T01:30:04.010Z,99542.91
2023-03-26T01:32:44.949Z,99548.50
2023-03-26T01:35:28.092Z,99542.41
2023-03-26T01:38:10.707Z,99536.63
2023-03-26T01:40:43.907Z,99532.97
2023-03-26T01:43:19.073Z,99530.53
2023-03-26T01:45:50.900Z,99536.63
2023-03-26T01:48:19.518Z,99529.16
2023-03-26T01:50:48.679Z,99535.72
2023-03-26T01:53:16.907Z,99538.19
2023-03-26T01:55:57.556Z,99526.31
2023-03-26T01:58:33.380Z,99521.03
2023-03-26T02:01:16.883Z,99521.66
2023-03-26T02:03:50.546Z,99514.44
2023-03-26T02:06:25.831Z,99519.69
2023-03-26T02:08:57.814Z,99507.34
2023-03-26T02:11:35.429Z,99509.63
2023-03-26T02:14:05.279Z,99507.44
2023-03-26T02:16:33.790Z,99509.91
2023-03-26T02:19:04.345Z,99503.47
2023-03-26T02:21:34.171Z,99499.00
2023-03-26T02:24:04.209Z,99509.19
2023-03-26T02:26:39.322Z,99502.09
2023-03-26T02:29:13.950Z,99495.66
2023-03-26T02:31:44.448Z,99492.84
2023-03-26T02:34:12.532Z,99484.72
2023-03-26T02:36:46.077Z,99474.81
2023-03-26T02:39:14.451Z,99478.63
2023-03-26T02:41:49.932Z,99470.72
2023-03-26T02:44:17.771Z,99469.09
2023-03-26T02:47:00.495Z,99467.28
2023-03-26T02:49:37.322Z,99475.19
2023-03-26T02:52:06.659Z,99470.53
2023-03-26T02:54:36.105Z,99476.63
2023-03-26T02:57:16.760Z,99470.53
2023-03-26T03:00:14.214Z,99461.81
2023-03-26T03:02:58.021Z,99466.25
2023-03-26T03:05:32.349Z,99457.53
2023-03-26T03:08:19.518Z,99458.56
2023-03-26T03:11:10.753Z,99466.25
2023-03-26T03:13:44.624Z,99461.38
2023-03-26T03:16:13.935Z,99456.09
2023-03-26T03:18:42.139Z,99449.00
2023-03-26T03:21:10.292Z,99458.72
2023-03-26T03:23:38.248Z,99450.81
2023-03-26T03:26:15.762Z,99442.91
2023-03-26T03:28:49.585Z,99443.06
2023-03-26T03:31:18.987Z,99436.16
2023-03-26T03:33:47.239Z,99440.44
2023-03-26T03:36:19.756Z,99436.97
2023-03-26T03:38:49.582Z,99438.78
2023-03-26T03:41:20.860Z,99438.78
2023-03-26T03:43:51.830Z,99433.91
2023-03-26T03:46:26.480Z,99437.31
2023-03-26T03:48:54.803Z,99436.72
2023-03-26T03:51:35.188Z,99434.06
2023-03-26T03:54:05.892Z,99423.16
2023-03-26T03:56:54.087Z,99435.50
2023-03-26T03:59:28.955Z,99435.34
2023-03-26T04:01:58.563Z,99435.16
2023-03-26T04:04:34.549Z,99425.25
2023-03-26T04:07:05.676Z,99427.72
2023-03-26T04:09:57.177Z,99422.06
2023-03-26T04:12:28.501Z,99421.88
2023-03-26T04:15:05.135Z,99422.34
2023-03-26T04:17:33.662Z,99422.16
2023-03-26T04:20:10.603Z,99418.34
2023-03-26T04:22:39.481Z,99420.00
2023-03-26T04:25:11.439Z,99411.69
2023-03-26T04:27:44.031Z,99412.50
2023-03-26T04:30:25.464Z,99412.50
2023-03-26T04:33:03.964Z,99408.44
2023-03-26T04:35:35.624Z,99396.84
2023-03-26T04:38:06.489Z,99399.69
2023-03-26T04:40:39.179Z,99407.63
2023-03-26T04:43:47.441Z,99401.69
2023-03-26T04:46:24.887Z,99404.97
2023-03-26T04:49:03.716Z,99408.44
2023-03-26T04:51:39.133Z,99402.34
2023-03-26T04:54:21.573Z,99397.69
2023-03-26T04:57:02.286Z,99394.22
2023-03-26T04:59:43.422Z,99385.50
2023-03-26T05:02:15.662Z,99386.13
2023-03-26T05:04:54.701Z,99379.22
2023-03-26T05:07:26.259Z,99373.75
2023-03-26T05:09:57.594Z,99370.13
2023-03-26T05:12:41.851Z,99375.41
2023-03-26T05:15:14.948Z,99368.94
2023-03-26T05:18:08.784Z,99363.03
2023-03-26T05:20:43.481Z,99361.03
2023-03-26T05:23:11.833Z,99364.50
2023-03-26T05:25:47.137Z,99367.94
2023-03-26T05:28:20.743Z,99361.84
2023-03-26T05:31:12.458Z,99355.19
2023-03-26T05:33:46.626Z,99365.56
2023-03-26T05:36:16.396Z,99353.84
2023-03-26T05:38:49.671Z,99350.56
2023-03-26T05:41:44.356Z,99348.66
2023-03-26T05:44:12.444Z,99348.19
2023-03-26T05:46:46.239Z,99340.00
2023-03-26T05:49:22.975Z,99337.38
2023-03-26T05:51:50.869Z,99336.38
2023-03-26T05:54:54.018Z,99332.09
2023-03-26T05:57:44.966Z,99334.19
2023-03-26T06:00:31.629Z,99335.47
2023-03-26T06:02:59.671Z,99331.81
2023-03-26T06:05:35.462Z,99332.25
2023-03-26T06:08:14.597Z,99328.50
2023-03-26T06:10:50.722Z,99334.22
2023-03-26T06:13:19.076Z,99325.59
2023-03-26T06:15:49.355Z,99323.44
2023-03-26T06:18:28.205Z,99319.63
2023-03-26T06:21:18.530Z,99317.63
2023-03-26T06:23:51.846Z,99319.94
2023-03-26T06:26:41.489Z,99314.16
2023-03-26T06:29:21.379Z,99315.28
2023-03-26T06:32:12.316Z,99314.69
2023-03-26T06:34:51.491Z,99310.75
2023-03-26T06:37:21.087Z,99311.66
2023-03-26T06:39:51.192Z,99311.38
2023-03-26T06:42:21.621Z,99307.41
2023-03-26T06:45:40.624Z,99301.38
2023-03-26T06:48:27.561Z,99297.97
2023-03-26T06:51:16.873Z,99304.13
2023-03-26T06:54:16.869Z,99301.13
2023-03-26T06:56:53.127Z,99310.31
2023-03-26T06:59:33.257Z,99308.13
2023-03-26T07:02:19.525Z,99305.66
2023-03-26T07:05:05.935Z,99305.47
2023-03-26T07:07:52.352Z,99302.03
2023-03-26T07:10:41.732Z,99296.13
2023-03-26T07:13:27.988Z,99291.31
2023-03-26T07:16:24.994Z,99288.94
2023-03-26T07:19:09.796Z,99277.75
2023-03-26T07:21:40.897Z,99282.22
2023-03-26T07:24:28.101Z,99278.75
2023-03-26T07:27:18.797Z,99287.13
2023-03-26T07:29:51.036Z,99280.59
2023-03-26T07:32:39.368Z,99282.25
2023-03-26T07:35:38.037Z,99262.31
2023-03-26T07:38:33.804Z,99266.38
2023-03-26T07:41:29.956Z,99270.09
2023-03-26T07:44:36.705Z,99271.09
2023-03-26T07:47:34.224Z,99260.84
2023-03-26T07:50:25.902Z,99258.94
2023-03-26T07:53:24.868Z,99256.03
2023-03-26T07:56:13.872Z,99257.84
2023-03-26T07:59:11.869Z,99249.25
2023-03-26T08:02:32.767Z,99251.19
2023-03-26T08:05:21.752Z,99254.97
2023-03-26T08:08:18.380Z,99248.47
2023-03-26T08:11:19.487Z,99250.06
2023-03-26T08:14:05.595Z,99247.66
2023-03-26T08:16:41.739Z,99250.81
2023-03-26T08:19:34.594Z,99248.84
2023-03-26T08:22:13.063Z,99247.84
2023-03-26T08:24:50.774Z,99249.91
2023-03-26T08:27:27.666Z,99245.69
2023-03-26T08:30:02.724Z,99253.91
2023-03-26T08:32:31.540Z,99245.31
2023-03-26T08:35:01.178Z,99244.50
2023-03-26T08:37:29.613Z,99246.56
2023-03-26T08:39:57.607Z,99244.50
2023-03-26T08:43:00.403Z,99242.88
2023-03-26T08:46:00.763Z,99229.59
2023-03-26T08:49:02.892Z,99233.63
2023-03-26T08:52:11.278Z,99219.53
2023-03-26T08:55:11.087Z,99217.59
2023-03-26T08:58:24.426Z,99226.16
2023-03-26T09:01:10.684Z,99215.19
2023-03-26T09:03:55.955Z,99214.69
2023-03-26T09:07:16.325Z,99213.94
2023-03-26T09:10:15.872Z,99214.03
2023-03-26T09:13:24.128Z,99214.75
2023-03-26T09:16:29.937Z,99210.31
2023-03-26T09:19:21.456Z,99202.19
2023-03-26T09:22:28.024Z,99207.94
2023-03-26T09:25:44.480Z,99192.63
2023-03-26T09:28:44.114Z,99192.34
2023-03-26T09:31:44.279Z,99197.59
2023-03-26T09:34:31.354Z,99196.06
2023-03-26T09:37:15.804Z,99197.03
2023-03-26T09:39:53.173Z,99186.25
2023-03-26T09:42:32.652Z,99183.03
2023-03-26T09:45:21.022Z,99187.09
2023-03-26T09:48:14.934Z,99186.06
2023-03-26T09:50:58.612Z,99181.22
2023-03-26T09:54:03.315Z,99188.06
2023-03-26T09:56:42.075Z,99183.28
2023-03-26T09:59:33.723Z,99183.25
2023-03-26T10:02:19.453Z,99180.13
2023-03-26T10:05:20.106Z,99183.00
2023-03-26T10:07:58.656Z,99172.09
2023-03-26T10:10:35.689Z,99178.75
2023-03-26T10:13:14.954Z,99176.97
2023-03-26T10:15:58.655Z,99172.06
2023-03-26T10:18:40.941Z,99170.91
2023-03-26T10:21:18.914Z,99166.59
2023-03-26T10:24:01.657Z,99170.41
2023-03-26T10:27:09.236Z,99165.13
2023-03-26T10:30:02.644Z,99163.34
2023-03-26T10:32:35.728Z,99168.63
2023-03-26T10:35:22.748Z,99164.09
2023-03-26T10:38:02.705Z,99167.50
2023-03-26T10:40:33.730Z,99163.91
2023-03-26T10:43:27.527Z,99164.59
2023-03-26T10:46:06.891Z,99163.22
2023-03-26T10:48:49.081Z,99159.81
2023-03-26T10:51:33.073Z,99161.91
2023-03-26T10:54:10.076Z,99162.19
2023-03-26T10:56:43.504Z,99162.59
2023-03-26T10:59:14.683Z,99164.25
2023-03-26T11:01:48.008Z,99169.56
2023-03-26T11:04:28.788Z,99170.78
2023-03-26T11:07:11.942Z,99164.69
2023-03-26T11:09:47.984Z,99171.16
2023-03-26T11:12:26.275Z,99169.31
2023-03-26T11:15:12.991Z,99180.66
2023-03-26T11:17:52.646Z,99175.16
2023-03-26T11:20:33.401Z,99170.91
2023-03-26T11:23:24.622Z,99176.69
2023-03-26T11:26:07.200Z,99169.81
2023-03-26T11:29:03.743Z,99173.91
2023-03-26T11:31:52.628Z,99166.72
2023-03-26T11:34:27.892Z,99170.09
2023-03-26T11:36:58.818Z,99171.09
2023-03-26T11:39:30.252Z,99182.28
2023-03-26T11:42:06.989Z,99180.47
2023-03-26T11:44:53.595Z,99181.94
2023-03-26T11:47:27.232Z,99177.09
2023-03-26T11:50:00.577Z,99185.88
2023-03-26T11:52:28.829Z,99182.09
2023-03-26T11:54:58.607Z,99184.59
2023-03-26T11:57:31.023Z,99180.78
2023-03-26T12:00:08.035Z,99187.34
2023-03-26T12:02:41.794Z,99179.63
2023-03-26T12:05:21.530Z,99178.84
2023-03-26T12:07:54.530Z,99176.06
2023-03-26T12:10:31.013Z,99177.53
2023-03-26T12:13:02.726Z,99173.09
2023-03-26T12:15:32.059Z,99174.56
2023-03-26T12:18:18.778Z,99173.59
2023-03-26T12:20:47.001Z,99170.34
2023-03-26T12:23:52.448Z,99171.78
2023-03-26T12:26:36.133Z,99170.78
2023-03-26T12:29:13.250Z,99165.06
2023-03-26T12:31:58.754Z,99167.78
2023-03-26T12:34:35.481Z,99168.41
2023-03-26T12:37:05.375Z,99171.69
2023-03-26T12:40:08.168Z,99166.63
2023-03-26T12:44:50.824Z,99176.19
2023-03-26T12:45:24.082Z,99175.34
2023-03-26T12:48:03.889Z,99170.88
2023-03-26T12:50:46.517Z,99170.66
2023-03-26T12:53:34.933Z,99186.28
2023-03-26T12:56:19.924Z,99178.97
2023-03-26T12:59:08.162Z,99176.44
2023-03-26T13:01:51.051Z,99182.34
2023-03-26T13:05:04.304Z,99180.28
2023-03-26T13:07:45.466Z,99180.50
2023-03-26T13:10:43.204Z,99170.94
2023-03-26T13:13:22.421Z,99165.66
2023-03-26T13:15:54.764Z,99165.88
2023-03-26T13:18:34.476Z,99167.31
2023-03-26T13:21:11.495Z,99161.06
2023-03-26T13:23:52.253Z,99163.09
2023-03-26T13:26:35.346Z,99159.88
2023-03-26T13:29:11.289Z,99157.25
2023-03-26T13:31:46.321Z,99156.84
2023-03-26T13:34:22.732Z,99154.03
2023-03-26T13:37:04.292Z,99152.22
2023-03-26T13:39:39.002Z,99151.44
2023-03-26T13:42:23.871Z,99151.00
2023-03-26T13:45:04.544Z,99157.50
2023-03-26T13:47:39.715Z,99155.03
2023-03-26T13:50:16.010Z,99155.44
2023-03-26T13:52:47.027Z,99159.31
2023-03-26T13:55:23.693Z,99147.72
2023-03-26T13:58:00.115Z,99152.63
2023-03-26T14:00:38.343Z,99155.03
2023-03-26T14:03:17.365Z,99153.44
2023-03-26T14:05:48.515Z,99154.03
2023-03-26T14:08:23.065Z,99163.84
2023-03-26T14:10:57.197Z,99158.38
2023-03-26T14:13:31.284Z,99153.66
2023-03-26T14:16:06.421Z,99150.00
2023-03-26T14:18:44.675Z,99152.44
2023-03-26T14:21:37.232Z,99156.91
2023-03-26T14:24:35.492Z,99155.91
2023-03-26T14:27:18.554Z,99161.22
2023-03-26T14:30:29.874Z,99156.72
2023-03-26T14:33:13.923Z,99159.34
2023-03-26T14:35:54.060Z,99159.91
2023-03-26T14:38:41.027Z,99160.66
2023-03-26T14:41:24.342Z,99163.22
2023-03-26T14:44:51.281Z,99170.84
2023-03-26T14:47:21.354Z,99172.41
2023-03-26T14:50:20.206Z,99166.59
2023-03-26T14:52:51.521Z,99177.59
2023-03-26T14:55:40.341Z,99174.28
2023-03-26T14:58:39.484Z,99176.69
2023-03-26T15:01:22.935Z,99179.88
2023-03-26T15:04:41.316Z,99187.25
2023-03-26T15:07:37.234Z,99190.59
2023-03-26T15:10:43.271Z,99180.50
2023-03-26T15:13:38.898Z,99185.75
2023-03-26T15:16:14.976Z,99193.03
2023-03-26T15:19:43.846Z,99189.16
2023-03-26T15:22:55.145Z,99190.31
2023-03-26T15:25:58.249Z,99193.94
2023-03-26T15:29:10.484Z,99206.03
2023-03-26T15:31:59.237Z,99202.53
2023-03-26T15:34:48.608Z,99198.19
2023-03-26T15:38:00.879Z,99204.66
2023-03-26T15:40:56.565Z,99207.09
2023-03-26T15:43:30.900Z,99211.38
2023-03-26T15:46:27.189Z,99212.94
2023-03-26T15:49:07.012Z,99224.63
2023-03-26T15:51:51.871Z,99220.91
2023-03-26T15:54:28.645Z,99219.66
2023-03-26T15:57:07.132Z,99222.41
2023-03-26T15:59:43.247Z,99221.59
2023-03-26T16:02:22.626Z,99227.03
2023-03-26T16:04:55.095Z,99227.78
2023-03-26T16:07:47.877Z,99227.44
2023-03-26T16:10:28.152Z,99227.16
2023-03-26T16:13:28.202Z,99227.81
2023-03-26T16:15:57.972Z,99236.56
2023-03-26T16:18:35.767Z,99231.59
2023-03-26T16:21:39.390Z,99245.00
2023-03-26T16:24:21.964Z,99244.53
2023-03-26T16:27:02.756Z,99249.06
2023-03-26T16:29:30.896Z,99258.28
2023-03-26T16:32:16.958Z,99259.00
2023-03-26T16:34:52.737Z,99259.19
2023-03-26T16:37:42.792Z,99262.81
2023-03-26T16:40:34.760Z,99262.47
2023-03-26T16:43:35.866Z,99271.81
2023-03-26T16:46:09.752Z,99273.28
2023-03-26T16:48:48.498Z,99278.06
2023-03-26T16:51:25.846Z,99283.97
2023-03-26T16:54:05.073Z,99288.88
2023-03-26T16:56:44.487Z,99290.81
2023-03-26T16:59:39.530Z,99293.94
2023-03-26T17:02:22.160Z,99297.22
2023-03-26T17:04:56.792Z,99306.03
2023-03-26T17:07:33.569Z,99318.63
2023-03-26T17:10:15.888Z,99319.28
2023-03-26T17:12:51.608Z,99315.81
2023-03-26T17:15:31.930Z,99318.72
2023-03-26T17:18:25.667Z,99324.31
2023-03-26T17:21:01.953Z,99334.38
2023-03-26T17:23:41.222Z,99342.38
2023-03-26T17:26:24.051Z,99344.88
2023-03-26T17:29:09.427Z,99344.75
2023-03-26T17:31:43.742Z,99356.81
2023-03-26T17:34:54.435Z,99353.50
2023-03-26T17:37:45.638Z,99368.72
2023-03-26T17:40:54.559Z,99365.44
2023-03-26T17:43:46.403Z,99375.84
2023-03-26T17:46:26.462Z,99382.09
2023-03-26T17:49:00.665Z,99381.28
2023-03-26T17:51:40.990Z,99392.50
2023-03-26T17:54:16.132Z,99392.03
2023-03-26T17:56:44.503Z,99409.31
2023-03-26T17:59:23.016Z,99407.88
2023-03-26T18:01:55.384Z,99416.59
2023-03-26T18:04:31.469Z,99423.03
2023-03-26T18:07:15.343Z,99431.94
2023-03-26T18:09:58.137Z,99434.53
2023-03-26T18:13:00.376Z,99445.72
2023-03-26T18:15:46.768Z,99443.91
2023-03-26T18:18:18.052Z,99455.94
2023-03-26T18:20:47.836Z,99451.97
2023-03-26T18:23:23.898Z,99459.88
2023-03-26T18:25:57.912Z,99462.50
2023-03-26T18:28:36.165Z,99472.69
2023-03-26T18:31:18.616Z,99471.88
2023-03-26T18:33:48.330Z,99475.34
2023-03-26T18:36:18.494Z,99482.91
2023-03-26T18:38:48.730Z,99492.06
2023-03-26T18:41:28.199Z,99491.91
2023-03-26T18:43:57.391Z,99497.97
2023-03-26T18:46:27.101Z,99501.09
2023-03-26T18:48:55.649Z,99505.03
2023-03-26T18:51:26.738Z,99507.63
2023-03-26T18:53:57.252Z,99521.75
2023-03-26T18:56:31.366Z,99531.75
2023-03-26T18:59:01.332Z,99524.19
2023-03-26T19:01:33.411Z,99528.41
2023-03-26T19:04:05.216Z,99535.78
2023-03-26T19:06:38.153Z,99537.53
2023-03-26T19:09:20.100Z,99549.75
2023-03-26T19:11:58.151Z,99544.31
2023-03-26T19:14:28.480Z,99545.44
2023-03-26T19:17:01.493Z,99552.75
2023-03-26T19:19:33.519Z,99553.69
2023-03-26T19:22:02.606Z,99572.44
2023-03-26T19:24:30.643Z,99571.09
2023-03-26T19:26:58.979Z,99578.75
2023-03-26T19:29:29.666Z,99586.84
2023-03-26T19:32:04.953Z,99578.47
2023-03-26T19:34:34.830Z,99585.59
2023-03-26T19:37:05.189Z,99587.16
2023-03-26T19:39:41.501Z,99593.16
2023-03-26T19:42:15.859Z,99598.84
2023-03-26T19:44:44.203Z,99613.53
2023-03-26T19:47:18.986Z,99622.94
2023-03-26T19:49:52.902Z,99613.22
2023-03-26T19:52:24.824Z,99612.53
2023-03-26T19:55:01.249Z,99614.69
2023-03-26T19:57:30.539Z,99614.00
2023-03-26T19:59:58.619Z,99621.88
2023-03-26T20:02:28.476Z,99636.09
2023-03-26T20:04:56.355Z,99628.81
2023-03-26T20:07:35.318Z,99640.31
2023-03-26T20:10:05.849Z,99641.41
2023-03-26T20:12:34.234Z,99637.44
2023-03-26T20:15:02.720Z,99660.88
2023-03-26T20:17:34.741Z,99650.81
2023-03-26T20:20:05.627Z,99653.75
2023-03-26T20:22:33.560Z,99664.34
2023-03-26T20:25:01.275Z,99670.97
2023-03-26T20:27:29.945Z,99665.88
2023-03-26T20:29:58.289Z,99675.69
2023-03-26T20:32:27.404Z,99672.50
2023-03-26T20:34:57.688Z,99682.97
2023-03-26T20:37:25.587Z,99692.91
2023-03-26T20:39:53.327Z,99691.06
2023-03-26T20:42:21.363Z,99699.75
2023-03-26T20:44:49.063Z,99694.94
2023-03-26T20:47:17.208Z,99704.56
2023-03-26T20:49:45.862Z,99703.06
2023-03-26T20:52:15.379Z,99714.63
2023-03-26T20:54:43.556Z,99714.91
2023-03-26T20:57:13.303Z,99719.03
2023-03-26T20:59:41.925Z,99724.78
2023-03-26T21:02:11.643Z,99722.19
2023-03-26T21:04:39.784Z,99724.66
2023-03-26T21:07:17.763Z,99726.44
2023-03-26T21:09:48.838Z,99730.03
2023-03-26T21:12:26.089Z,99725.22
2023-03-26T21:14:55.950Z,99737.03
2023-03-26T21:17:24.619Z,99739.66
2023-03-26T21:19:53.217Z,99733.47
2023-03-26T21:22:31.744Z,99744.50
2023-03-26T21:25:12.980Z,99747.94
2023-03-26T21:27:47.619Z,99748.88
2023-03-26T21:30:17.614Z,99748.75
2023-03-26T21:32:46.543Z,99758.50
2023-03-26T21:35:16.092Z,99756.88
2023-03-26T21:37:48.399Z,99771.72
2023-03-26T21:40:18.733Z,99771.72
2023-03-26T21:42:48.255Z,99770.06
2023-03-26T21:45:17.282Z,99770.50
2023-03-26T21:47:45.972Z,99774.63
2023-03-26T21:50:20.368Z,99780.25
2023-03-26T21:52:48.695Z,99789.59
2023-03-26T21:55:20.079Z,99796.59
2023-03-26T21:58:17.565Z,99799.34
2023-03-26T22:00:55.126Z,99793.31
2023-03-26T22:03:26.515Z,99818.47
2023-03-26T22:06:01.087Z,99816.13
2023-03-26T22:08:31.883Z,99816.25
2023-03-26T22:11:01.384Z,99812.66
2023-03-26T22:13:29.383Z,99832.47
2023-03-26T22:15:57.228Z,99833.97
2023-03-26T22:18:25.982Z,99829.00
2023-03-26T22:20:54.162Z,99843.28
2023-03-26T22:23:22.182Z,99838.59
2023-03-26T22:25:49.873Z,99839.97
2023-03-26T22:28:19.617Z,99845.69
2023-03-26T22:30:47.383Z,99852.13
2023-03-26T22:33:17.779Z,99853.34
2023-03-26T22:35:46.482Z,99851.97
2023-03-26T22:38:14.926Z,99858.25
2023-03-26T22:40:42.762Z,99860.56
2023-03-26T22:43:10.455Z,99870.47
2023-03-26T22:45:39.525Z,99878.53
2023-03-26T22:48:07.862Z,99879.06
2023-03-26T22:50:35.648Z,99880.94
2023-03-26T22:53:03.361Z,99889.19
2023-03-26T22:55:31.067Z,99894.28
2023-03-26T22:57:58.811Z,99891.91
2023-03-26T23:00:26.778Z,99905.34
2023-03-26T23:03:00.076Z,99911.53
2023-03-26T23:05:28.454Z,99911.53
2023-03-26T23:07:57.000Z,99910.94
2023-03-26T23:10:24.760Z,99918.19
2023-03-26T23:12:53.127Z,99921.03
2023-03-26T23:15:20.963Z,99918.69
2023-03-26T23:17:54.622Z,99926.53
2023-03-26T23:20:24.427Z,99928.53
2023-03-26T23:22:52.556Z,99943.63
2023-03-26T23:25:20.929Z,99952.41
2023-03-26T23:27:50.582Z,99956.09
2023-03-26T23:30:19.137Z,99965.13
2023-03-26T23:32:47.179Z,99960.25
2023-03-26T23:35:15.123Z,99961.34
2023-03-26T23:37:44.346Z,99964.19
2023-03-26T23:40:13.775Z,99974.03
2023-03-26T23:42:41.694Z,99971.69
2023-03-26T23:45:09.975Z,99982.59
2023-03-26T23:47:42.051Z,99990.44
2023-03-26T23:50:11.051Z,99983.53
2023-03-26T23:52:38.726Z,100001.09
2023-03-26T23:55:08.644Z,100012.56
2023-03-26T23:57:37.011Z,100010.34
